Time;durP1;ratioP1;P1;durP2;ratioP2;P2;SDS_P1;SDS_P2;PMS_P1;PMS_P2;Temp;Humidity;BMP_temperature;BMP_pressure;BME280_temperature;BME280_humidity;BME280_pressure;Samples;Min_cycle;Max_cycle;Signal;HPM_P1;HPM_P2
2023/10/09 00:03:44;;;;;;;;;;;14.60;51.20;;;13.36;54.16;101916.41;12257240;19;19931;-84
2023/10/09 00:07:45;;;;;;;;;;;14.60;51.30;;;13.54;54.04;101933.06;12258972;19;19947;-84
2023/10/09 00:11:48;;;;;;;;;;;14.60;51.20;;;13.45;54.21;101897.59;12257518;19;19986;-84
2023/10/09 00:15:53;;;;;;;;;;;14.60;51.30;;;13.53;53.91;101894.59;12254916;19;20322;-84
2023/10/09 00:19:59;;;;;;;;;;;14.60;51.30;;;13.52;54.14;101901.63;12251314;19;19947;-84
2023/10/09 00:24:05;;;;;;;;;;;14.60;51.30;;;13.51;53.75;101902.56;12257055;19;19919;-84
2023/10/09 00:28:10;;;;;;;;;;;14.70;51.30;;;13.52;53.95;101892.91;12257016;19;19938;-84
2023/10/09 00:32:52;;;;;;;;;;;14.50;51.20;;;13.35;53.97;101859.63;12258902;19;19943;-84
2023/10/09 00:36:50;;;;;;;;;;;14.60;51.30;;;13.42;54.12;101861.00;12254431;19;19915;-84
2023/10/09 00:45:32;;;;;;;;;;;14.50;51.30;;;13.35;54.17;101846.50;12265190;19;19922;-85
2023/10/09 00:49:34;;;;;;;;;;;14.50;51.30;;;13.27;54.09;101823.25;12263730;19;19907;-85
2023/10/09 00:53:36;;;;;;;;;;;14.40;51.40;;;13.34;54.17;101836.91;12260491;19;19922;-84
2023/10/09 00:57:37;;;;;;;;;;;14.40;51.40;;;13.28;54.08;101822.31;12250743;19;19918;-84
2023/10/09 01:01:40;;;;;;;;;;;14.40;51.80;;;13.19;54.14;101815.72;12251421;19;19918;-84
2023/10/09 01:10:09;;;;;;;;;;;14.30;51.50;;;13.24;54.23;101813.72;12247696;19;20244;-84
2023/10/09 01:14:11;;;;;;;;;;;14.30;51.60;;;13.31;54.29;101826.56;12251886;19;19915;-84
2023/10/09 01:18:13;;;;;;;;;;;14.30;51.70;;;13.16;54.24;101794.06;12252965;19;19915;-84
2023/10/09 01:22:16;;;;;;;;;;;14.30;51.70;;;13.32;54.31;101797.66;12259379;19;20348;-85
2023/10/09 01:26:19;;;;;;;;;;;14.30;51.70;;;13.20;54.37;101769.34;12257091;19;20264;-84
2023/10/09 01:30:20;;;;;;;;;;;14.40;51.80;;;13.28;54.39;101785.59;12249740;19;19920;-84
2023/10/09 01:38:40;;;;;;;;;;;14.30;51.70;;;13.11;54.50;101739.19;12254551;19;19915;-84
2023/10/09 01:42:45;;;;;;;;;;;14.30;51.80;;;13.15;54.40;101740.75;12253474;19;19927;-84
2023/10/09 01:46:46;;;;;;;;;;;14.20;51.80;;;13.11;54.27;101717.38;12250474;19;19923;-84
2023/10/09 01:50:48;;;;;;;;;;;14.20;51.80;;;13.01;54.47;101696.00;12252937;19;19953;-85
2023/10/09 01:54:51;;;;;;;;;;;14.20;51.80;;;12.96;54.50;101669.16;12254569;19;20265;-84
2023/10/09 01:58:57;;;;;;;;;;;14.10;51.90;;;13.05;54.42;101668.69;12254997;19;19922;-84
2023/10/09 02:03:04;;;;;;;;;;;14.10;51.90;;;12.99;54.57;101653.28;12250672;19;19922;-84
2023/10/09 02:07:08;;;;;;;;;;;14.10;51.90;;;13.10;54.53;101668.47;12250079;19;19927;-84
2023/10/09 02:11:14;;;;;;;;;;;14.10;52.00;;;13.06;54.62;101665.16;12251436;19;19915;-84
2023/10/09 02:15:16;;;;;;;;;;;14.10;52.30;;;13.11;54.69;101668.38;12250531;19;19919;-84
2023/10/09 02:19:37;;;;;;;;;;;14.10;52.10;;;13.05;54.50;101645.94;12250624;19;20648;-84
2023/10/09 02:23:51;;;;;;;;;;;14.10;52.00;;;13.06;54.71;101636.31;12250119;19;20026;-84
2023/10/09 02:27:53;;;;;;;;;;;14.10;52.10;;;12.98;54.67;101626.19;12254421;19;19923;-84
2023/10/09 02:32:00;;;;;;;;;;;14.10;52.10;;;13.08;54.65;101676.41;12263415;19;19972;-84
2023/10/09 02:36:05;;;;;;;;;;;14.10;52.10;;;13.10;54.68;101671.09;12259090;19;19919;-84
2023/10/09 02:40:08;;;;;;;;;;;14.10;52.10;;;13.10;54.75;101658.00;12254400;19;20310;-85
2023/10/09 02:44:11;;;;;;;;;;;14.10;52.20;;;13.11;54.76;101641.31;12256667;19;19915;-85
2023/10/09 02:48:13;;;;;;;;;;;14.20;52.20;;;13.08;54.75;101650.19;12261904;19;19922;-85
2023/10/09 02:52:18;;;;;;;;;;;14.20;52.20;;;13.11;54.81;101650.03;12268290;19;19919;-85
2023/10/09 02:56:24;;;;;;;;;;;14.20;52.20;;;13.16;54.68;101660.28;12268597;19;19927;-85
2023/10/09 03:00:32;;;;;;;;;;;14.30;52.40;;;13.15;54.78;101638.47;12265706;19;19946;-85
2023/10/09 03:04:34;;;;;;;;;;;14.30;52.30;;;13.14;54.67;101615.78;12267059;19;20003;-85
2023/10/09 03:08:37;;;;;;;;;;;14.30;52.30;;;13.13;54.71;101616.72;12275187;19;19919;-85
2023/10/09 03:12:39;;;;;;;;;;;14.20;52.20;;;12.97;54.84;101586.97;12274085;19;19923;-85
2023/10/09 03:16:40;;;;;;;;;;;14.20;52.20;;;13.06;54.74;101600.44;12270673;19;20337;-85
2023/10/09 03:20:44;;;;;;;;;;;14.10;52.30;;;13.07;54.86;101590.81;12269894;19;19930;-85
2023/10/09 03:24:46;;;;;;;;;;;14.10;52.30;;;13.04;54.77;101581.34;12275665;19;19939;-85
2023/10/09 03:28:48;;;;;;;;;;;14.20;52.40;;;13.04;54.79;101564.72;12270468;19;19922;-84
2023/10/09 03:32:55;;;;;;;;;;;14.30;52.40;;;12.95;54.76;101536.38;12276094;19;20318;-85
2023/10/09 03:37:03;;;;;;;;;;;14.10;52.40;;;12.99;54.78;101548.41;12275065;19;19919;-85
2023/10/09 03:41:06;;;;;;;;;;;14.10;52.40;;;12.92;54.90;101532.13;12270079;19;19935;-84
2023/10/09 03:45:24;;;;;;;;;;;14.10;52.50;;;12.96;54.74;101523.19;12271694;19;19919;-84
2023/10/09 03:49:26;;;;;;;;;;;14.10;52.40;;;12.97;54.87;101524.03;12269558;19;19914;-84
2023/10/09 03:53:30;;;;;;;;;;;14.00;52.50;;;12.89;55.08;101503.47;12271794;19;19926;-84
2023/10/09 03:57:31;;;;;;;;;;;14.00;52.50;;;12.95;54.92;101502.28;12263324;19;20179;-85
2023/10/09 04:01:39;;;;;;;;;;;14.00;52.60;;;12.71;54.97;101439.75;12270381;19;19923;-84
2023/10/09 04:05:42;;;;;;;;;;;14.00;52.60;;;12.80;54.95;101447.13;12268807;19;19911;-84
2023/10/09 04:09:53;;;;;;;;;;;14.00;52.60;;;12.87;54.99;101462.53;12262782;19;19933;-84
2023/10/09 04:13:59;;;;;;;;;;;14.00;52.60;;;12.89;54.98;101473.78;12262644;19;20341;-84
2023/10/09 04:18:03;;;;;;;;;;;14.00;52.80;;;12.76;55.03;101477.03;12262306;19;19926;-84
2023/10/09 04:22:09;;;;;;;;;;;13.90;53.20;;;12.88;55.14;101511.41;12267172;19;19930;-84
2023/10/09 04:26:14;;;;;;;;;;;13.90;53.40;;;12.77;55.10;101504.97;12262519;19;19930;-85
2023/10/09 04:30:19;;;;;;;;;;;13.90;53.50;;;12.79;55.09;101513.56;12257323;19;21405;-83
2023/10/09 04:38:34;;;;;;;;;;;13.90;53.30;;;12.80;55.06;101475.97;12258831;19;19923;-85
2023/10/09 04:42:38;;;;;;;;;;;13.80;53.20;;;12.60;55.17;101434.22;12248985;19;19915;-84
2023/10/09 04:46:43;;;;;;;;;;;13.90;53.20;;;12.84;55.22;101474.88;12259651;19;19952;-84
2023/10/09 04:51:20;;;;;;;;;;;13.90;53.20;;;12.92;55.21;101492.81;12253682;19;19933;-84
2023/10/09 04:59:18;;;;;;;;;;;14.00;53.10;;;12.76;55.27;101447.38;12253714;19;19923;-84
2023/10/09 05:03:42;;;;;;;;;;;14.10;53.20;;;13.00;55.07;101487.19;12254600;19;19970;-84
2023/10/09 05:07:56;;;;;;;;;;;14.10;53.10;;;12.73;55.34;101437.91;12252620;19;19933;-84
2023/10/09 05:12:09;;;;;;;;;;;14.10;53.10;;;12.90;55.42;101457.97;12252102;19;19954;-84
2023/10/09 05:16:33;;;;;;;;;;;14.10;53.00;;;12.96;55.38;101456.78;12251779;19;19914;-83
2023/10/09 05:24:56;;;;;;;;;;;14.10;53.10;;;13.02;55.39;101452.06;12252900;19;19933;-84
2023/10/09 05:28:58;;;;;;;;;;;14.10;53.10;;;12.97;55.36;101438.38;12249641;19;19936;-84
2023/10/09 05:33:27;;;;;;;;;;;14.10;53.10;;;13.04;55.40;101451.97;12250187;19;19919;-83
2023/10/09 05:37:33;;;;;;;;;;;14.20;53.20;;;13.05;55.34;101451.91;12250763;19;19927;-84
2023/10/09 05:42:09;;;;;;;;;;;14.10;53.10;;;13.01;55.48;101444.28;12250796;19;19925;-84
2023/10/09 05:46:09;;;;;;;;;;;14.10;53.10;;;13.01;55.42;101437.25;12248596;19;19933;-84
2023/10/09 06:01:18;;;;;;;;;;;14.20;53.30;;;13.09;55.47;101449.13;12244087;19;19935;-84
2023/10/09 06:07:40;;;;;;;;;;;14.20;53.20;;;13.12;55.64;101457.66;12245978;19;19930;-84
2023/10/09 06:19:58;;;;;;;;;;;14.20;53.20;;;13.12;55.50;101431.44;12244614;19;19923;-85
2023/10/09 06:24:14;;;;;;;;;;;14.30;53.30;;;13.20;55.65;101444.97;12244895;19;19979;-84
2023/10/09 06:28:18;;;;;;;;;;;14.30;53.20;;;13.19;55.61;101438.03;12245627;19;19926;-87
2023/10/09 06:36:31;;;;;;;;;;;14.40;53.30;;;13.28;55.66;101436.72;12251488;19;19983;-85
2023/10/09 06:44:53;;;;;;;;;;;14.40;53.40;;;13.15;55.76;101409.44;12250190;19;20231;-84
2023/10/09 06:48:55;;;;;;;;;;;14.40;53.40;;;13.29;55.87;101414.81;12241387;19;19973;-84
2023/10/09 06:52:57;;;;;;;;;;;14.40;53.40;;;13.35;55.79;101422.34;12247933;19;19926;-85
2023/10/09 06:57:12;;;;;;;;;;;14.50;53.50;;;13.36;55.80;101426.66;12244604;19;19911;-84
2023/10/09 07:01:28;;;;;;;;;;;14.50;53.40;;;13.31;55.87;101414.72;12244784;19;19923;-84
2023/10/09 07:05:48;;;;;;;;;;;14.50;53.30;;;13.34;55.77;101411.91;12235523;19;19935;-85
2023/10/09 07:18:49;;;;;;;;;;;14.50;53.40;;;13.34;55.79;101414.53;12240112;19;20337;-84
2023/10/09 07:22:55;;;;;;;;;;;14.50;53.50;;;13.31;55.92;101412.09;12248333;19;19940;-85
2023/10/09 07:27:06;;;;;;;;;;;14.50;53.50;;;13.38;55.88;101421.31;12245622;19;19923;-84
2023/10/09 07:31:09;;;;;;;;;;;14.50;53.50;;;13.22;55.76;101390.66;12242553;19;19919;-84
2023/10/09 07:35:34;;;;;;;;;;;14.50;53.70;;;13.40;56.02;101409.81;12241634;19;20266;-83
2023/10/09 07:39:35;;;;;;;;;;;14.50;53.70;;;13.39;55.95;101412.50;12240358;19;19970;-85
2023/10/09 07:48:05;;;;;;;;;;;14.50;53.60;;;13.40;55.76;101424.72;12243359;19;19967;-85
2023/10/09 07:52:06;;;;;;;;;;;14.50;53.70;;;13.42;55.93;101426.31;12247659;19;19918;-84
2023/10/09 07:56:09;;;;;;;;;;;14.50;53.80;;;13.45;55.95;101425.31;12256322;19;19923;-85
2023/10/09 08:04:49;;;;;;;;;;;14.60;53.80;;;13.49;56.10;101432.91;12267801;19;20589;-85
2023/10/09 08:13:49;;;;;;;;;;;14.60;54.00;;;13.52;56.02;101452.88;12260044;19;19923;-85
2023/10/09 08:17:28;;;;;;;;;;;14.60;54.10;;;13.47;56.13;101444.41;12260753;19;19922;-85
2023/10/09 08:21:43;;;;;;;;;;;14.60;54.00;;;13.52;56.10;101454.66;12264723;19;19926;-84
2023/10/09 08:26:10;;;;;;;;;;;14.60;53.90;;;13.57;56.18;101479.72;12259717;19;20373;-84
2023/10/09 08:34:26;;;;;;;;;;;14.70;54.00;;;13.58;56.21;101491.06;12257453;19;20369;-84
2023/10/09 08:38:33;;;;;;;;;;;14.70;54.00;;;13.56;56.05;101474.56;12253301;19;19919;-85
2023/10/09 08:42:34;;;;;;;;;;;14.70;53.80;;;13.61;56.11;101476.00;12260796;19;19922;-85
2023/10/09 08:46:36;;;;;;;;;;;14.70;54.30;;;13.64;56.08;101465.31;12258839;19;20341;-85
2023/10/09 08:50:38;;;;;;;;;;;14.70;54.20;;;13.36;56.08;101421.41;12257580;19;19919;-84
2023/10/09 08:54:40;;;;;;;;;;;14.80;54.00;;;13.53;56.16;101446.72;12258539;19;19922;-85
2023/10/09 08:58:42;;;;;;;;;;;14.80;54.10;;;13.71;56.24;101471.91;12255959;19;20606;-84
2023/10/09 09:02:47;;;;;;;;;;;14.70;54.20;;;13.61;56.25;101449.75;12255149;19;20333;-86
2023/10/09 09:06:48;;;;;;;;;;;14.80;54.40;;;13.54;56.24;101427.41;12256568;19;19918;-84
2023/10/09 09:11:22;;;;;;;;;;;14.80;54.10;;;13.72;56.28;101447.38;12249101;19;19923;-85
2023/10/09 09:15:27;;;;;;;;;;;14.80;54.40;;;13.79;56.28;101454.88;12251099;19;19994;-85
2023/10/09 09:19:32;;;;;;;;;;;14.90;54.10;;;13.75;56.33;101445.50;12252933;19;19933;-85
2023/10/09 09:23:34;;;;;;;;;;;14.90;54.10;;;13.76;56.34;101434.06;12253260;19;20313;-84
2023/10/09 09:27:55;;;;;;;;;;;14.90;54.00;;;13.76;56.31;101421.78;12263779;19;19939;-85
2023/10/09 09:36:17;;;;;;;;;;;15.00;54.10;;;13.77;56.35;101428.75;12246514;19;19982;-86
2023/10/09 09:40:29;;;;;;;;;;;15.00;54.20;;;13.82;56.41;101433.69;12238400;19;19911;-84
2023/10/09 09:44:33;;;;;;;;;;;15.00;54.10;;;13.90;56.40;101436.72;12265519;19;19919;-85
2023/10/09 09:48:44;;;;;;;;;;;15.00;54.10;;;13.97;56.42;101450.38;12269352;19;20024;-84
2023/10/09 09:52:46;;;;;;;;;;;15.00;54.00;;;13.83;56.31;101424.91;12268329;19;19918;-86
2023/10/09 09:56:51;;;;;;;;;;;15.10;54.10;;;13.90;56.52;101440.19;12262756;19;19947;-84
2023/10/09 10:00:56;;;;;;;;;;;15.10;54.00;;;13.94;56.52;101456.66;12260897;19;19914;-84
2023/10/09 10:04:59;;;;;;;;;;;15.10;54.30;;;13.91;56.36;101451.56;12260497;19;19927;-84
2023/10/09 10:09:02;;;;;;;;;;;15.10;54.10;;;13.93;56.43;101439.19;12259150;19;19914;-85
2023/10/09 10:13:05;;;;;;;;;;;15.10;54.10;;;14.02;56.48;101456.19;12255390;19;19911;-85
2023/10/09 10:17:21;;;;;;;;;;;15.10;54.10;;;13.61;56.49;101384.16;12263618;19;19923;-86
2023/10/09 10:22:01;;;;;;;;;;;15.20;54.10;;;14.01;56.46;101450.09;12253018;19;19918;-84
2023/10/09 10:25:51;;;;;;;;;;;15.20;54.20;;;14.07;56.55;101452.38;12248024;19;20272;-84
2023/10/09 10:30:24;;;;;;;;;;;15.20;54.00;;;14.14;56.45;101458.94;12253150;19;19932;-84
2023/10/09 10:34:26;;;;;;;;;;;15.30;54.00;;;14.10;56.63;101443.47;12259490;19;19921;-85
2023/10/09 10:38:34;;;;;;;;;;;15.20;54.00;;;14.12;56.59;101442.44;12265663;19;20282;-85
2023/10/09 10:42:35;;;;;;;;;;;15.30;54.00;;;14.11;56.58;101432.03;12255694;19;20326;-86
2023/10/09 10:46:43;;;;;;;;;;;15.30;54.20;;;14.15;56.60;101434.38;12254723;19;19929;-85
2023/10/09 10:50:45;;;;;;;;;;;15.30;54.20;;;14.20;56.62;101441.13;12257817;19;19915;-85
2023/10/09 10:54:47;;;;;;;;;;;15.30;54.30;;;13.97;56.58;101388.19;12257842;19;19921;-85
2023/10/09 11:03:17;;;;;;;;;;;15.30;54.70;;;14.26;56.65;101417.16;12258391;19;19942;-84
2023/10/09 11:07:26;;;;;;;;;;;15.40;54.40;;;14.22;56.63;101415.63;12253816;19;19974;-85
2023/10/09 11:11:40;;;;;;;;;;;15.40;54.20;;;14.23;56.62;101406.78;12259306;19;19919;-85
2023/10/09 11:19:47;;;;;;;;;;;15.50;54.20;;;14.36;56.70;101423.53;12261855;19;19915;-84
2023/10/09 11:23:57;;;;;;;;;;;15.50;54.30;;;14.33;56.60;101402.69;12256741;19;19923;-84
2023/10/09 11:28:15;;;;;;;;;;;15.50;54.20;;;14.32;56.53;101393.97;12262725;19;19926;-84
2023/10/09 11:32:19;;;;;;;;;;;15.50;54.20;;;14.40;56.69;101414.53;12271678;19;19954;-84
2023/10/09 11:36:32;;;;;;;;;;;15.50;54.50;;;14.38;56.71;101401.47;12268225;19;19915;-84
2023/10/09 11:44:55;;;;;;;;;;;15.60;54.30;;;14.38;56.61;101369.09;12263193;19;19915;-84
2023/10/09 11:49:25;;;;;;;;;;;15.60;54.30;;;14.49;56.69;101397.34;12260353;19;19911;-84
2023/10/09 11:57:30;;;;;;;;;;;15.60;54.00;;;14.43;56.74;101382.81;12254205;19;19935;-84
2023/10/09 12:01:35;;;;;;;;;;;15.60;54.10;;;14.49;56.64;101395.56;12250725;19;19915;-84
2023/10/09 12:05:37;;;;;;;;;;;15.60;54.20;;;14.46;56.71;101371.25;12253671;19;19923;-84
2023/10/09 12:09:39;;;;;;;;;;;15.60;54.20;;;14.47;56.79;101367.69;12257232;19;19915;-84
2023/10/09 12:13:42;;;;;;;;;;;15.60;54.30;;;14.51;56.79;101359.53;12257875;19;19926;-85
2023/10/09 12:17:46;;;;;;;;;;;15.60;54.40;;;14.56;56.88;101364.53;12250291;19;19915;-84
2023/10/09 12:21:49;;;;;;;;;;;15.70;54.50;;;14.43;56.65;101350.44;12257691;19;20010;-85
2023/10/09 12:25:55;;;;;;;;;;;15.70;54.40;;;14.55;56.73;101363.66;12255750;19;19919;-84
2023/10/09 12:29:58;;;;;;;;;;;15.70;54.60;;;14.59;56.81;101380.97;12244397;19;20359;-84
2023/10/09 12:33:59;;;;;;;;;;;15.70;54.40;;;14.49;56.86;101366.66;12255812;19;19914;-84
2023/10/09 12:38:01;;;;;;;;;;;15.70;54.70;;;14.42;56.71;101343.47;12255113;19;19922;-85
2023/10/09 12:42:11;;;;;;;;;;;15.70;54.20;;;14.38;56.67;101343.66;12255713;19;19959;-84
2023/10/09 12:46:16;;;;;;;;;;;15.70;54.30;;;14.39;56.72;101339.25;12257613;19;20010;-84
2023/10/09 12:50:27;;;;;;;;;;;15.70;54.30;;;14.54;56.74;101362.00;12253562;19;19930;-85
2023/10/09 12:54:29;;;;;;;;;;;15.80;54.50;;;14.37;56.73;101323.59;12251528;19;20242;-85
2023/10/09 12:58:30;;;;;;;;;;;15.80;54.40;;;14.44;56.67;101333.72;12256998;19;19918;-85
2023/10/09 13:02:32;;;;;;;;;;;15.80;54.40;;;14.72;56.80;101377.59;12253261;19;19990;-85
2023/10/09 13:06:35;;;;;;;;;;;15.80;54.20;;;14.73;56.74;101371.38;12257836;19;19931;-85
2023/10/09 13:10:38;;;;;;;;;;;15.80;54.20;;;14.73;56.95;101353.81;12258468;19;19919;-85
2023/10/09 13:14:41;;;;;;;;;;;15.80;54.10;;;14.57;56.88;101338.16;12253647;19;20238;-84
2023/10/09 13:18:49;;;;;;;;;;;15.80;54.20;;;14.73;56.82;101366.13;12246648;19;19923;-84
2023/10/09 13:22:52;;;;;;;;;;;15.80;54.10;;;14.62;56.72;101345.75;12250225;19;19918;-85
2023/10/09 13:26:58;;;;;;;;;;;15.80;54.10;;;14.74;56.83;101365.16;12246619;19;19925;-84
2023/10/09 13:31:04;;;;;;;;;;;15.80;54.00;;;14.69;56.70;101354.09;12244903;19;20575;-85
2023/10/09 13:35:06;;;;;;;;;;;15.80;54.00;;;14.72;56.75;101367.91;12242302;19;19922;-84
2023/10/09 13:39:52;;;;;;;;;;;15.80;54.10;;;14.77;56.86;101383.38;12239496;19;19923;-85
2023/10/09 13:43:35;;;;;;;;;;;15.80;54.10;;;14.79;56.73;101390.22;12248178;19;19915;-85
2023/10/09 13:47:36;;;;;;;;;;;15.80;54.00;;;14.70;56.72;101367.16;12246894;19;19923;-85
2023/10/09 13:51:44;;;;;;;;;;;15.80;54.10;;;14.71;56.78;101355.69;12247916;19;19943;-85
2023/10/09 13:55:47;;;;;;;;;;;15.90;54.00;;;14.72;56.91;101356.56;12249208;19;19942;-85
2023/10/09 13:59:51;;;;;;;;;;;15.80;54.20;;;14.81;56.78;101369.94;12246907;19;19911;-84
2023/10/09 14:03:56;;;;;;;;;;;15.90;54.20;;;14.78;57.04;101364.88;12249871;19;19931;-87
2023/10/09 14:08:00;;;;;;;;;;;15.90;54.20;;;14.73;56.80;101345.09;12244791;19;19991;-85
2023/10/09 14:12:08;;;;;;;;;;;15.90;54.10;;;14.82;56.87;101370.78;12255795;19;19915;-84
2023/10/09 14:16:23;;;;;;;;;;;15.90;54.20;;;14.87;56.80;101387.13;12251183;19;19943;-86
2023/10/09 14:20:30;;;;;;;;;;;15.90;54.10;;;14.81;56.91;101363.84;12252372;19;19948;-85
2023/10/09 14:24:34;;;;;;;;;;;15.90;54.10;;;14.87;56.91;101368.72;12253377;19;19918;-85
2023/10/09 14:28:37;;;;;;;;;;;15.90;54.10;;;14.81;56.82;101361.22;12229748;19;19949;-84
2023/10/09 14:32:47;;;;;;;;;;;15.90;54.10;;;14.88;56.94;101356.41;12254406;19;19919;-85
2023/10/09 14:36:49;;;;;;;;;;;15.90;54.10;;;14.84;56.83;101342.63;12249345;19;19922;-85
2023/10/09 14:40:51;;;;;;;;;;;16.00;54.10;;;14.86;57.07;101346.00;12253812;19;19931;-85
2023/10/09 14:44:53;;;;;;;;;;;16.00;54.10;;;14.88;56.91;101357.28;12250226;19;20326;-84
2023/10/09 14:48:55;;;;;;;;;;;16.00;54.20;;;14.92;56.92;101352.66;12250714;19;19948;-85
2023/10/09 14:52:57;;;;;;;;;;;16.00;54.00;;;14.94;56.86;101353.41;12252005;19;19921;-85
2023/10/09 14:56:58;;;;;;;;;;;16.00;54.00;;;14.82;56.96;101333.97;12250609;19;19919;-85
2023/10/09 15:01:09;;;;;;;;;;;16.00;54.00;;;14.89;56.83;101347.59;12248502;19;19915;-85
2023/10/09 15:05:11;;;;;;;;;;;16.00;54.10;;;14.86;56.77;101347.78;12264698;19;19929;-85
2023/10/09 15:09:23;;;;;;;;;;;16.00;54.00;;;14.92;56.96;101358.75;12263479;19;19923;-85
2023/10/09 15:13:28;;;;;;;;;;;16.00;54.00;;;14.90;56.77;101346.66;12259123;19;19946;-85
2023/10/09 15:17:29;;;;;;;;;;;16.00;54.00;;;14.93;56.91;101349.94;12265239;19;19919;-85
2023/10/09 15:21:32;;;;;;;;;;;16.00;54.10;;;14.89;56.77;101339.72;12267231;19;19931;-85
2023/10/09 15:25:34;;;;;;;;;;;16.00;54.30;;;14.81;56.80;101341.03;12264315;19;19914;-85
2023/10/09 15:29:42;;;;;;;;;;;16.00;54.10;;;14.81;56.88;101348.06;12260212;19;20267;-85
2023/10/09 15:33:44;;;;;;;;;;;16.00;54.10;;;14.82;56.76;101357.63;12265472;19;19930;-85
2023/10/09 15:37:46;;;;;;;;;;;15.90;54.10;;;14.91;56.94;101359.72;12264926;19;19915;-84
2023/10/09 15:41:48;;;;;;;;;;;16.00;54.10;;;14.87;56.69;101358.19;12266386;19;19919;-84
2023/10/09 15:45:50;;;;;;;;;;;15.90;54.10;;;14.86;56.77;101351.25;12264817;19;19970;-86
2023/10/09 15:49:54;;;;;;;;;;;15.90;54.40;;;14.74;56.94;101341.50;12259475;19;19927;-86
2023/10/09 15:53:56;;;;;;;;;;;15.90;54.10;;;14.89;56.78;101360.75;12273697;19;19934;-85
2023/10/09 15:57:59;;;;;;;;;;;15.90;54.00;;;14.87;56.80;101358.19;12275888;19;19925;-85
2023/10/09 16:02:03;;;;;;;;;;;15.90;54.10;;;14.77;56.98;101362.34;12276165;19;19915;-85
2023/10/09 16:06:05;;;;;;;;;;;15.90;54.10;;;14.88;56.86;101396.72;12269884;19;19987;-85
2023/10/09 16:10:08;;;;;;;;;;;15.90;54.00;;;14.79;56.86;101387.59;12258157;19;19950;-85
2023/10/09 16:14:10;;;;;;;;;;;15.90;54.00;;;14.75;56.80;101385.28;12251202;19;19939;-85
2023/10/09 16:18:11;;;;;;;;;;;15.90;54.00;;;14.67;56.68;101366.50;12256823;19;19915;-85
2023/10/09 16:22:13;;;;;;;;;;;16.00;54.10;;;14.58;56.72;101353.00;12258212;19;19919;-85
2023/10/09 16:26:16;;;;;;;;;;;15.90;54.10;;;14.90;56.93;101404.50;12254620;19;19934;-84
2023/10/09 16:30:20;;;;;;;;;;;15.90;54.10;;;14.90;56.84;101404.50;12250221;19;19932;-84
2023/10/09 16:34:25;;;;;;;;;;;15.90;54.00;;;14.87;56.93;101394.19;12249737;19;19923;-84
2023/10/09 16:38:27;;;;;;;;;;;15.90;54.00;;;14.77;56.99;101378.13;12261438;19;20072;-84
2023/10/09 16:42:28;;;;;;;;;;;15.90;54.00;;;14.87;56.87;101400.28;12259851;19;19918;-84
2023/10/09 16:46:31;;;;;;;;;;;15.90;54.10;;;14.89;56.96;101387.03;12265823;19;19963;-85
2023/10/09 16:50:34;;;;;;;;;;;16.00;54.20;;;14.82;56.88;101384.81;12265150;19;19922;-84
2023/10/09 16:54:36;;;;;;;;;;;16.00;54.10;;;14.85;56.99;101386.38;12263924;19;19918;-85
2023/10/09 16:58:41;;;;;;;;;;;16.00;54.20;;;14.82;57.03;101392.69;12263754;19;19911;-84
2023/10/09 17:02:43;;;;;;;;;;;16.00;54.10;;;14.88;56.91;101390.59;12267214;19;19919;-84
2023/10/09 17:06:45;;;;;;;;;;;16.00;54.10;;;14.86;57.05;101398.59;12260825;19;19915;-84
2023/10/09 17:10:50;;;;;;;;;;;15.90;54.10;;;14.85;57.00;101423.19;12263930;19;19922;-84
2023/10/09 17:14:55;;;;;;;;;;;15.90;54.10;;;14.83;56.85;101431.19;12267649;19;19911;-85
2023/10/09 17:18:59;;;;;;;;;;;15.90;54.10;;;14.82;56.77;101416.38;12263563;19;19951;-84
2023/10/09 17:23:01;;;;;;;;;;;15.90;54.10;;;14.79;57.05;101428.84;12267700;19;19910;-84
2023/10/09 17:27:05;;;;;;;;;;;15.90;54.20;;;14.77;56.93;101421.06;12257964;19;19926;-85
2023/10/09 17:31:07;;;;;;;;;;;15.90;54.10;;;14.73;57.01;101427.44;12258337;19;19935;-86
2023/10/09 17:35:10;;;;;;;;;;;15.80;54.10;;;14.75;56.97;101428.19;12261814;19;19925;-84
2023/10/09 17:39:12;;;;;;;;;;;15.80;54.20;;;14.71;57.10;101433.72;12260531;19;19919;-84
2023/10/09 17:43:15;;;;;;;;;;;15.80;54.20;;;14.73;57.01;101448.47;12254059;19;19982;-84
2023/10/09 17:47:17;;;;;;;;;;;15.80;54.20;;;14.56;56.97;101423.22;12266362;19;19943;-85
2023/10/09 17:51:19;;;;;;;;;;;15.80;54.30;;;14.70;57.00;101434.66;12270769;19;19948;-85
2023/10/09 17:55:20;;;;;;;;;;;15.80;54.20;;;14.58;56.75;101404.69;12270554;19;20338;-85
2023/10/09 17:59:21;;;;;;;;;;;15.80;54.30;;;14.79;57.06;101437.56;12270038;19;19918;-85
2023/10/09 18:03:27;;;;;;;;;;;15.80;54.30;;;14.78;57.06;101432.41;12271940;19;19930;-85
2023/10/09 18:07:31;;;;;;;;;;;15.80;54.30;;;14.76;56.83;101419.34;12275095;19;19926;-85
2023/10/09 18:11:33;;;;;;;;;;;15.80;54.30;;;14.80;56.98;101436.63;12274759;19;19983;-85
2023/10/09 18:15:35;;;;;;;;;;;15.80;54.30;;;14.80;56.92;101420.88;12261910;19;19923;-85
2023/10/09 18:19:38;;;;;;;;;;;15.80;54.30;;;14.73;57.05;101423.97;12270790;19;19935;-84
2023/10/09 18:23:44;;;;;;;;;;;15.80;54.20;;;14.70;56.92;101413.63;12259493;19;20273;-85
2023/10/09 18:27:46;;;;;;;;;;;15.80;54.30;;;14.80;56.91;101417.41;12267818;19;19910;-84
2023/10/09 18:31:49;;;;;;;;;;;15.80;54.30;;;14.79;56.99;101407.78;12271978;19;19942;-85
2023/10/09 18:35:51;;;;;;;;;;;15.80;54.40;;;14.79;56.87;101418.31;12275794;19;19940;-84
2023/10/09 18:39:52;;;;;;;;;;;15.80;54.30;;;14.76;57.05;101402.72;12272281;19;19950;-85
2023/10/09 18:43:56;;;;;;;;;;;15.80;54.80;;;14.48;57.05;101361.50;12263750;19;19923;-84
2023/10/09 18:47:58;;;;;;;;;;;15.80;54.40;;;14.69;56.96;101396.16;12262235;19;19921;-86
2023/10/09 18:51:59;;;;;;;;;;;15.70;54.40;;;14.64;56.96;101388.56;12258746;19;19918;-84
2023/10/09 18:56:11;;;;;;;;;;;15.70;54.40;;;14.70;57.07;101408.38;12258192;19;19984;-84
2023/10/09 19:00:24;;;;;;;;;;;15.70;54.40;;;14.63;57.13;101397.38;12258036;19;19921;-85
2023/10/09 19:04:28;;;;;;;;;;;15.70;54.40;;;14.63;56.98;101399.16;12253951;19;19927;-84
2023/10/09 19:08:32;;;;;;;;;;;15.70;54.50;;;14.55;56.97;101384.69;12258409;19;19919;-84
2023/10/09 19:12:40;;;;;;;;;;;15.70;54.40;;;14.54;56.85;101401.41;12261400;19;19924;-84
2023/10/09 19:16:42;;;;;;;;;;;15.70;54.50;;;14.55;57.08;101402.25;12264945;19;19918;-85
2023/10/09 19:20:45;;;;;;;;;;;15.70;54.50;;;14.54;57.27;101398.78;12261084;19;19907;-84
2023/10/09 19:24:46;;;;;;;;;;;15.60;54.40;;;14.64;57.08;101419.28;12265167;19;19935;-86
2023/10/09 19:28:48;;;;;;;;;;;15.70;54.50;;;14.31;57.07;101367.78;12263949;19;19910;-85
2023/10/09 19:32:50;;;;;;;;;;;15.60;54.50;;;14.33;57.07;101376.41;12263783;19;19911;-84
2023/10/09 19:36:51;;;;;;;;;;;15.60;54.60;;;14.60;57.07;101424.69;12263956;19;19919;-86
2023/10/09 19:40:52;;;;;;;;;;;15.60;54.50;;;14.51;57.29;101425.22;12258776;19;20003;-83
2023/10/09 19:44:54;;;;;;;;;;;15.60;54.50;;;14.62;57.07;101434.28;12260150;19;19922;-84
2023/10/09 19:48:56;;;;;;;;;;;15.60;54.60;;;14.58;57.05;101441.50;12265748;19;19915;-84
2023/10/09 19:52:57;;;;;;;;;;;15.60;54.60;;;14.55;57.21;101437.28;12273277;19;19915;-84
2023/10/09 19:56:59;;;;;;;;;;;15.60;54.60;;;14.55;57.16;101441.69;12270510;19;19919;-85
2023/10/09 20:01:04;;;;;;;;;;;15.60;54.60;;;14.53;57.17;101454.94;12269208;19;19925;-84
2023/10/09 20:05:06;;;;;;;;;;;15.60;54.60;;;14.49;57.14;101448.13;12273716;19;19930;-84
2023/10/09 20:09:12;;;;;;;;;;;15.60;54.60;;;14.56;57.25;101457.38;12269344;19;19935;-85